sensor_id;sensor_type;location;lat;lon;timestamp;temperature;humidity
3944;DHT22;1986;52.546;13.428;2022-09-21T00:01:12;9.20;99.90
3944;DHT22;1986;52.546;13.428;2022-09-21T00:03:41;9.30;99.90
3944;DHT22;1986;52.546;13.428;2022-09-21T00:06:10;9.20;99.90
3944;DHT22;1986;52.546;13.428;2022-09-21T00:08:38;9.20;99.90
3944;DHT22;1986;52.546;13.428;2022-09-21T00:11:05;9.20;99.90
3944;DHT22;1986;52.546;13.428;2022-09-21T00:13:33;9.20;99.90
3944;DHT22;1986;52.546;13.428;2022-09-21T00:16:05;9.30;99.90
3944;DHT22;1986;52.546;13.428;2022-09-21T00:18:33;9.20;99.90
3944;DHT22;1986;52.546;13.428;2022-09-21T00:21:05;9.20;99.90
3944;DHT22;1986;52.546;13.428;2022-09-21T00:23:33;9.20;99.90
3944;DHT22;1986;52.546;13.428;2022-09-21T00:26:08;9.20;99.90
3944;DHT22;1986;52.546;13.428;2022-09-21T00:28:36;9.20;99.90
3944;DHT22;1986;52.546;13.428;2022-09-21T00:31:06;9.20;99.90
3944;DHT22;1986;52.546;13.428;2022-09-21T00:33:33;9.20;99.90
3944;DHT22;1986;52.546;13.428;2022-09-21T00:36:06;9.20;99.90
3944;DHT22;1986;52.546;13.428;2022-09-21T00:38:34;9.20;99.90
3944;DHT22;1986;52.546;13.428;2022-09-21T00:41:01;9.10;99.90
3944;DHT22;1986;52.546;13.428;2022-09-21T00:43:28;9.10;99.90
3944;DHT22;1986;52.546;13.428;2022-09-21T00:46:00;9.10;99.90
3944;DHT22;1986;52.546;13.428;2022-09-21T00:48:27;9.10;99.90
3944;DHT22;1986;52.546;13.428;2022-09-21T00:50:57;9.10;99.90
3944;DHT22;1986;52.546;13.428;2022-09-21T00:53:27;9.10;99.90
3944;DHT22;1986;52.546;13.428;2022-09-21T00:55:56;9.10;99.90
3944;DHT22;1986;52.546;13.428;2022-09-21T00:58:28;9.10;99.90
3944;DHT22;1986;52.546;13.428;2022-09-21T01:00:58;9.10;99.90
3944;DHT22;1986;52.546;13.428;2022-09-21T01:03:26;9.00;99.90
3944;DHT22;1986;52.546;13.428;2022-09-21T01:05:53;9.00;99.90
3944;DHT22;1986;52.546;13.428;2022-09-21T01:08:21;9.00;99.90
3944;DHT22;1986;52.546;13.428;2022-09-21T01:11:06;9.00;99.90
3944;DHT22;1986;52.546;13.428;2022-09-21T01:13:44;9.00;99.90
3944;DHT22;1986;52.546;13.428;2022-09-21T01:16:15;9.00;99.90
3944;DHT22;1986;52.546;13.428;2022-09-21T01:18:49;9.00;99.90
3944;DHT22;1986;52.546;13.428;2022-09-21T01:21:21;9.00;99.90
3944;DHT22;1986;52.546;13.428;2022-09-21T01:24:07;9.00;99.90
3944;DHT22;1986;52.546;13.428;2022-09-21T01:29:52;8.90;99.90
3944;DHT22;1986;52.546;13.428;2022-09-21T01:32:24;8.90;99.90
3944;DHT22;1986;52.546;13.428;2022-09-21T01:34:56;8.90;99.90
3944;DHT22;1986;52.546;13.428;2022-09-21T01:37:30;8.90;99.90
3944;DHT22;1986;52.546;13.428;2022-09-21T01:40:01;8.90;99.90
3944;DHT22;1986;52.546;13.428;2022-09-21T01:42:31;8.90;99.90
3944;DHT22;1986;52.546;13.428;2022-09-21T01:45:03;8.90;99.90
3944;DHT22;1986;52.546;13.428;2022-09-21T01:47:33;8.80;99.90
3944;DHT22;1986;52.546;13.428;2022-09-21T01:50:03;8.80;99.90
3944;DHT22;1986;52.546;13.428;2022-09-21T01:52:36;8.80;99.90
3944;DHT22;1986;52.546;13.428;2022-09-21T01:55:08;8.80;99.90
3944;DHT22;1986;52.546;13.428;2022-09-21T01:57:41;8.80;99.90
3944;DHT22;1986;52.546;13.428;2022-09-21T02:00:11;8.80;99.90
3944;DHT22;1986;52.546;13.428;2022-09-21T02:02:41;8.80;99.90
3944;DHT22;1986;52.546;13.428;2022-09-21T02:05:10;8.80;99.90
3944;DHT22;1986;52.546;13.428;2022-09-21T02:07:39;8.80;99.90
3944;DHT22;1986;52.546;13.428;2022-09-21T02:10:09;8.80;99.90
3944;DHT22;1986;52.546;13.428;2022-09-21T02:12:39;8.80;99.90
3944;DHT22;1986;52.546;13.428;2022-09-21T02:15:11;8.80;99.90
3944;DHT22;1986;52.546;13.428;2022-09-21T02:17:46;8.70;99.90
3944;DHT22;1986;52.546;13.428;2022-09-21T02:20:19;8.70;99.90
3944;DHT22;1986;52.546;13.428;2022-09-21T02:22:59;8.80;99.90
3944;DHT22;1986;52.546;13.428;2022-09-21T02:25:36;8.70;99.90
3944;DHT22;1986;52.546;13.428;2022-09-21T02:28:11;8.70;99.90
3944;DHT22;1986;52.546;13.428;2022-09-21T02:30:48;8.70;99.90
3944;DHT22;1986;52.546;13.428;2022-09-21T02:33:21;8.70;99.90
3944;DHT22;1986;52.546;13.428;2022-09-21T02:35:57;8.70;99.90
3944;DHT22;1986;52.546;13.428;2022-09-21T02:38:32;8.70;99.90
3944;DHT22;1986;52.546;13.428;2022-09-21T02:41:05;8.70;99.90
3944;DHT22;1986;52.546;13.428;2022-09-21T02:43:39;8.70;99.90
3944;DHT22;1986;52.546;13.428;2022-09-21T02:46:12;8.70;99.90
3944;DHT22;1986;52.546;13.428;2022-09-21T02:48:45;8.60;99.90
3944;DHT22;1986;52.546;13.428;2022-09-21T02:51:17;8.60;99.90
3944;DHT22;1986;52.546;13.428;2022-09-21T02:53:45;8.60;99.90
3944;DHT22;1986;52.546;13.428;2022-09-21T02:56:13;8.60;99.90
3944;DHT22;1986;52.546;13.428;2022-09-21T02:58:44;8.60;99.90
3944;DHT22;1986;52.546;13.428;2022-09-21T03:01:14;8.60;99.90
3944;DHT22;1986;52.546;13.428;2022-09-21T03:03:42;8.60;99.90
3944;DHT22;1986;52.546;13.428;2022-09-21T03:06:11;8.60;99.90
3944;DHT22;1986;52.546;13.428;2022-09-21T03:08:38;8.60;99.90
3944;DHT22;1986;52.546;13.428;2022-09-21T03:11:05;8.60;99.90
3944;DHT22;1986;52.546;13.428;2022-09-21T03:13:32;8.60;99.90
3944;DHT22;1986;52.546;13.428;2022-09-21T03:16:03;8.60;99.90
3944;DHT22;1986;52.546;13.428;2022-09-21T03:18:32;8.60;99.90
3944;DHT22;1986;52.546;13.428;2022-09-21T03:20:59;8.60;99.90
3944;DHT22;1986;52.546;13.428;2022-09-21T03:23:27;8.70;99.90
3944;DHT22;1986;52.546;13.428;2022-09-21T03:25:53;8.70;99.90
3944;DHT22;1986;52.546;13.428;2022-09-21T03:28:21;8.70;99.90
3944;DHT22;1986;52.546;13.428;2022-09-21T03:30:48;8.70;99.90
3944;DHT22;1986;52.546;13.428;2022-09-21T03:33:15;8.70;99.90
3944;DHT22;1986;52.546;13.428;2022-09-21T03:35:44;8.70;99.90
3944;DHT22;1986;52.546;13.428;2022-09-21T03:38:10;8.70;99.90
3944;DHT22;1986;52.546;13.428;2022-09-21T03:40:37;8.70;99.90
3944;DHT22;1986;52.546;13.428;2022-09-21T03:43:04;8.70;99.90
3944;DHT22;1986;52.546;13.428;2022-09-21T03:45:31;8.70;99.90
3944;DHT22;1986;52.546;13.428;2022-09-21T03:47:59;8.70;99.90
3944;DHT22;1986;52.546;13.428;2022-09-21T03:50:27;8.70;99.90
3944;DHT22;1986;52.546;13.428;2022-09-21T03:52:56;8.60;99.90
3944;DHT22;1986;52.546;13.428;2022-09-21T03:55:25;8.60;99.90
3944;DHT22;1986;52.546;13.428;2022-09-21T03:57:52;8.60;99.90
3944;DHT22;1986;52.546;13.428;2022-09-21T04:00:19;8.60;99.90
3944;DHT22;1986;52.546;13.428;2022-09-21T04:02:46;8.50;99.90
3944;DHT22;1986;52.546;13.428;2022-09-21T04:05:14;8.50;99.90
3944;DHT22;1986;52.546;13.428;2022-09-21T04:07:42;8.50;99.90
3944;DHT22;1986;52.546;13.428;2022-09-21T04:10:16;8.50;99.90
3944;DHT22;1986;52.546;13.428;2022-09-21T04:12:45;8.50;99.90
3944;DHT22;1986;52.546;13.428;2022-09-21T04:15:14;8.50;99.90
3944;DHT22;1986;52.546;13.428;2022-09-21T04:17:44;8.40;99.90
3944;DHT22;1986;52.546;13.428;2022-09-21T04:20:11;8.40;99.90
3944;DHT22;1986;52.546;13.428;2022-09-21T04:22:38;8.40;99.90
3944;DHT22;1986;52.546;13.428;2022-09-21T04:25:05;8.40;99.90
3944;DHT22;1986;52.546;13.428;2022-09-21T04:27:35;8.40;99.90
3944;DHT22;1986;52.546;13.428;2022-09-21T04:30:01;8.40;99.90
3944;DHT22;1986;52.546;13.428;2022-09-21T04:32:31;8.40;99.90
3944;DHT22;1986;52.546;13.428;2022-09-21T04:35:02;8.30;99.90
3944;DHT22;1986;52.546;13.428;2022-09-21T04:37:34;8.30;99.90
3944;DHT22;1986;52.546;13.428;2022-09-21T04:40:07;8.30;99.90
3944;DHT22;1986;52.546;13.428;2022-09-21T04:42:37;8.30;99.90
3944;DHT22;1986;52.546;13.428;2022-09-21T04:45:04;8.30;99.90
3944;DHT22;1986;52.546;13.428;2022-09-21T04:47:32;8.30;99.90
3944;DHT22;1986;52.546;13.428;2022-09-21T04:50:01;8.30;99.90
3944;DHT22;1986;52.546;13.428;2022-09-21T04:52:28;8.30;99.90
3944;DHT22;1986;52.546;13.428;2022-09-21T04:54:57;8.30;99.90
3944;DHT22;1986;52.546;13.428;2022-09-21T04:57:28;8.40;99.90
3944;DHT22;1986;52.546;13.428;2022-09-21T04:59:56;8.30;99.90
3944;DHT22;1986;52.546;13.428;2022-09-21T05:02:23;8.30;99.90
3944;DHT22;1986;52.546;13.428;2022-09-21T05:04:52;8.30;99.90
3944;DHT22;1986;52.546;13.428;2022-09-21T05:07:21;8.30;99.90
3944;DHT22;1986;52.546;13.428;2022-09-21T05:09:54;8.30;99.90
3944;DHT22;1986;52.546;13.428;2022-09-21T05:12:29;8.30;99.90
3944;DHT22;1986;52.546;13.428;2022-09-21T05:15:09;8.30;99.90
3944;DHT22;1986;52.546;13.428;2022-09-21T05:17:55;8.30;99.90
3944;DHT22;1986;52.546;13.428;2022-09-21T05:20:25;8.40;99.90
3944;DHT22;1986;52.546;13.428;2022-09-21T05:22:53;8.40;99.90
3944;DHT22;1986;52.546;13.428;2022-09-21T05:25:25;8.40;99.90
3944;DHT22;1986;52.546;13.428;2022-09-21T05:27:56;8.40;99.90
3944;DHT22;1986;52.546;13.428;2022-09-21T05:30:27;8.50;99.90
3944;DHT22;1986;52.546;13.428;2022-09-21T05:33:00;8.50;99.90
3944;DHT22;1986;52.546;13.428;2022-09-21T05:35:33;8.60;99.90
3944;DHT22;1986;52.546;13.428;2022-09-21T05:38:09;8.70;99.90
3944;DHT22;1986;52.546;13.428;2022-09-21T05:40:39;8.80;99.90
3944;DHT22;1986;52.546;13.428;2022-09-21T05:43:08;8.90;99.90
3944;DHT22;1986;52.546;13.428;2022-09-21T05:45:41;8.90;99.90
3944;DHT22;1986;52.546;13.428;2022-09-21T05:48:15;8.90;99.90
3944;DHT22;1986;52.546;13.428;2022-09-21T05:50:55;8.90;99.90
3944;DHT22;1986;52.546;13.428;2022-09-21T05:53:48;8.90;99.90
3944;DHT22;1986;52.546;13.428;2022-09-21T05:56:35;9.00;99.90
3944;DHT22;1986;52.546;13.428;2022-09-21T05:59:17;9.00;99.90
3944;DHT22;1986;52.546;13.428;2022-09-21T06:01:58;9.10;99.90
3944;DHT22;1986;52.546;13.428;2022-09-21T06:04:33;9.20;99.90
3944;DHT22;1986;52.546;13.428;2022-09-21T06:07:00;9.20;99.90
3944;DHT22;1986;52.546;13.428;2022-09-21T06:09:27;9.30;99.90
3944;DHT22;1986;52.546;13.428;2022-09-21T06:11:54;9.30;99.90
3944;DHT22;1986;52.546;13.428;2022-09-21T06:14:21;9.30;99.90
3944;DHT22;1986;52.546;13.428;2022-09-21T06:16:52;9.40;99.90
3944;DHT22;1986;52.546;13.428;2022-09-21T06:19:19;9.50;99.90
3944;DHT22;1986;52.546;13.428;2022-09-21T06:21:46;9.50;99.90
3944;DHT22;1986;52.546;13.428;2022-09-21T06:24:13;9.50;99.90
3944;DHT22;1986;52.546;13.428;2022-09-21T06:26:55;9.50;99.90
3944;DHT22;1986;52.546;13.428;2022-09-21T06:29:25;9.60;99.90
3944;DHT22;1986;52.546;13.428;2022-09-21T06:31:54;9.60;99.90
3944;DHT22;1986;52.546;13.428;2022-09-21T06:34:22;9.70;99.90
3944;DHT22;1986;52.546;13.428;2022-09-21T06:36:48;9.70;99.90
3944;DHT22;1986;52.546;13.428;2022-09-21T06:39:16;9.80;99.90
3944;DHT22;1986;52.546;13.428;2022-09-21T06:41:44;9.80;99.90
3944;DHT22;1986;52.546;13.428;2022-09-21T06:44:10;9.90;99.90
3944;DHT22;1986;52.546;13.428;2022-09-21T06:46:37;9.90;99.90
3944;DHT22;1986;52.546;13.428;2022-09-21T06:49:06;9.90;99.90
3944;DHT22;1986;52.546;13.428;2022-09-21T06:51:32;9.80;99.90
3944;DHT22;1986;52.546;13.428;2022-09-21T06:54:00;9.90;99.90
3944;DHT22;1986;52.546;13.428;2022-09-21T06:56:27;9.90;99.90
3944;DHT22;1986;52.546;13.428;2022-09-21T06:58:54;10.00;99.90
3944;DHT22;1986;52.546;13.428;2022-09-21T07:01:24;10.10;99.90
3944;DHT22;1986;52.546;13.428;2022-09-21T07:03:51;10.10;99.90
3944;DHT22;1986;52.546;13.428;2022-09-21T07:06:19;10.20;99.90
3944;DHT22;1986;52.546;13.428;2022-09-21T07:08:46;10.20;99.90
3944;DHT22;1986;52.546;13.428;2022-09-21T07:11:13;10.30;99.90
3944;DHT22;1986;52.546;13.428;2022-09-21T07:13:40;10.30;99.90
3944;DHT22;1986;52.546;13.428;2022-09-21T07:16:08;10.30;99.90
3944;DHT22;1986;52.546;13.428;2022-09-21T07:18:39;10.30;99.90
3944;DHT22;1986;52.546;13.428;2022-09-21T07:21:07;10.40;99.90
3944;DHT22;1986;52.546;13.428;2022-09-21T07:23:36;10.70;99.90
3944;DHT22;1986;52.546;13.428;2022-09-21T07:26:06;10.80;99.90
3944;DHT22;1986;52.546;13.428;2022-09-21T07:28:34;10.80;99.90
3944;DHT22;1986;52.546;13.428;2022-09-21T07:31:05;10.90;99.90
3944;DHT22;1986;52.546;13.428;2022-09-21T07:33:33;11.00;99.90
3944;DHT22;1986;52.546;13.428;2022-09-21T07:36:01;11.10;99.90
3944;DHT22;1986;52.546;13.428;2022-09-21T07:38:36;11.20;99.90
3944;DHT22;1986;52.546;13.428;2022-09-21T07:41:04;11.30;99.90
3944;DHT22;1986;52.546;13.428;2022-09-21T07:43:31;11.30;99.90
3944;DHT22;1986;52.546;13.428;2022-09-21T07:45:58;11.30;99.90
3944;DHT22;1986;52.546;13.428;2022-09-21T07:48:26;11.30;99.90
3944;DHT22;1986;52.546;13.428;2022-09-21T07:50:53;11.40;99.90
3944;DHT22;1986;52.546;13.428;2022-09-21T07:53:31;11.40;99.90
3944;DHT22;1986;52.546;13.428;2022-09-21T07:56:04;11.70;99.90
3944;DHT22;1986;52.546;13.428;2022-09-21T07:58:31;11.90;99.90
3944;DHT22;1986;52.546;13.428;2022-09-21T08:01:16;11.80;99.90
3944;DHT22;1986;52.546;13.428;2022-09-21T08:03:43;11.80;99.90
3944;DHT22;1986;52.546;13.428;2022-09-21T08:06:09;11.80;99.90
3944;DHT22;1986;52.546;13.428;2022-09-21T08:08:39;11.80;99.90
3944;DHT22;1986;52.546;13.428;2022-09-21T08:11:07;11.90;99.90
3944;DHT22;1986;52.546;13.428;2022-09-21T08:13:37;12.00;99.90
3944;DHT22;1986;52.546;13.428;2022-09-21T08:16:04;12.00;99.90
3944;DHT22;1986;52.546;13.428;2022-09-21T08:18:36;12.10;99.90
3944;DHT22;1986;52.546;13.428;2022-09-21T08:21:04;12.20;99.90
3944;DHT22;1986;52.546;13.428;2022-09-21T08:23:31;12.20;99.90
3944;DHT22;1986;52.546;13.428;2022-09-21T08:26:13;12.20;99.90
3944;DHT22;1986;52.546;13.428;2022-09-21T08:28:45;12.10;99.90
3944;DHT22;1986;52.546;13.428;2022-09-21T08:31:15;12.20;99.90
3944;DHT22;1986;52.546;13.428;2022-09-21T08:33:43;12.30;99.90
3944;DHT22;1986;52.546;13.428;2022-09-21T08:36:10;12.30;99.90
3944;DHT22;1986;52.546;13.428;2022-09-21T08:38:38;12.30;99.90
3944;DHT22;1986;52.546;13.428;2022-09-21T08:41:14;12.40;99.90
3944;DHT22;1986;52.546;13.428;2022-09-21T08:43:44;12.40;99.90
3944;DHT22;1986;52.546;13.428;2022-09-21T08:46:14;12.50;99.90
3944;DHT22;1986;52.546;13.428;2022-09-21T08:48:44;12.50;99.90
3944;DHT22;1986;52.546;13.428;2022-09-21T08:51:16;12.60;99.90
3944;DHT22;1986;52.546;13.428;2022-09-21T08:53:48;12.80;99.90
3944;DHT22;1986;52.546;13.428;2022-09-21T08:56:16;12.90;99.90
3944;DHT22;1986;52.546;13.428;2022-09-21T08:58:44;12.90;99.90
3944;DHT22;1986;52.546;13.428;2022-09-21T09:01:23;12.90;99.90
3944;DHT22;1986;52.546;13.428;2022-09-21T09:04:03;12.90;99.90
3944;DHT22;1986;52.546;13.428;2022-09-21T09:06:40;13.00;99.90
3944;DHT22;1986;52.546;13.428;2022-09-21T09:09:36;13.20;99.90
3944;DHT22;1986;52.546;13.428;2022-09-21T09:12:27;13.40;99.90
3944;DHT22;1986;52.546;13.428;2022-09-21T09:15:13;13.60;99.90
3944;DHT22;1986;52.546;13.428;2022-09-21T09:17:51;13.70;99.90
3944;DHT22;1986;52.546;13.428;2022-09-21T09:20:29;13.80;99.90
3944;DHT22;1986;52.546;13.428;2022-09-21T09:23:04;13.90;99.90
3944;DHT22;1986;52.546;13.428;2022-09-21T09:25:35;13.90;99.90
3944;DHT22;1986;52.546;13.428;2022-09-21T09:28:16;13.80;99.90
3944;DHT22;1986;52.546;13.428;2022-09-21T09:30:46;13.80;99.90
3944;DHT22;1986;52.546;13.428;2022-09-21T09:33:20;13.80;99.90
3944;DHT22;1986;52.546;13.428;2022-09-21T09:35:49;14.10;99.90
3944;DHT22;1986;52.546;13.428;2022-09-21T09:38:24;14.10;99.90
3944;DHT22;1986;52.546;13.428;2022-09-21T09:41:05;14.00;99.90
3944;DHT22;1986;52.546;13.428;2022-09-21T09:43:46;14.10;99.90
3944;DHT22;1986;52.546;13.428;2022-09-21T09:46:20;14.20;99.90
3944;DHT22;1986;52.546;13.428;2022-09-21T09:49:06;14.20;99.90
3944;DHT22;1986;52.546;13.428;2022-09-21T09:51:40;14.30;99.90
3944;DHT22;1986;52.546;13.428;2022-09-21T09:54:12;14.40;99.90
3944;DHT22;1986;52.546;13.428;2022-09-21T09:56:40;14.50;99.90
3944;DHT22;1986;52.546;13.428;2022-09-21T09:59:13;14.50;99.90
3944;DHT22;1986;52.546;13.428;2022-09-21T10:01:42;14.60;99.90
3944;DHT22;1986;52.546;13.428;2022-09-21T10:04:12;14.70;99.90
3944;DHT22;1986;52.546;13.428;2022-09-21T10:06:40;14.70;99.90
3944;DHT22;1986;52.546;13.428;2022-09-21T10:09:26;14.90;99.90
3944;DHT22;1986;52.546;13.428;2022-09-21T10:11:57;15.00;99.90
3944;DHT22;1986;52.546;13.428;2022-09-21T10:14:27;15.10;99.90
3944;DHT22;1986;52.546;13.428;2022-09-21T10:17:01;15.20;99.90
3944;DHT22;1986;52.546;13.428;2022-09-21T10:19:30;15.40;99.90
3944;DHT22;1986;52.546;13.428;2022-09-21T10:21:58;15.50;99.90
3944;DHT22;1986;52.546;13.428;2022-09-21T10:24:29;15.70;99.90
3944;DHT22;1986;52.546;13.428;2022-09-21T10:27:03;15.70;99.90
3944;DHT22;1986;52.546;13.428;2022-09-21T10:29:39;15.80;99.90
3944;DHT22;1986;52.546;13.428;2022-09-21T10:32:22;16.10;99.90
3944;DHT22;1986;52.546;13.428;2022-09-21T10:35:13;16.50;99.90
3944;DHT22;1986;52.546;13.428;2022-09-21T10:37:41;16.90;99.90
3944;DHT22;1986;52.546;13.428;2022-09-21T10:43:24;16.70;99.90
3944;DHT22;1986;52.546;13.428;2022-09-21T10:49:28;16.90;99.90
3944;DHT22;1986;52.546;13.428;2022-09-21T10:51:56;16.60;99.90
3944;DHT22;1986;52.546;13.428;2022-09-21T10:54:26;16.50;99.90
3944;DHT22;1986;52.546;13.428;2022-09-21T10:56:56;16.60;99.90
3944;DHT22;1986;52.546;13.428;2022-09-21T10:59:26;16.60;99.90
3944;DHT22;1986;52.546;13.428;2022-09-21T11:01:55;16.50;99.90
3944;DHT22;1986;52.546;13.428;2022-09-21T11:04:33;16.50;99.90
3944;DHT22;1986;52.546;13.428;2022-09-21T11:07:09;16.60;99.90
3944;DHT22;1986;52.546;13.428;2022-09-21T11:09:40;16.70;99.90
3944;DHT22;1986;52.546;13.428;2022-09-21T11:12:20;16.90;99.90
3944;DHT22;1986;52.546;13.428;2022-09-21T11:14:58;16.90;99.90
3944;DHT22;1986;52.546;13.428;2022-09-21T11:17:34;17.10;99.90
3944;DHT22;1986;52.546;13.428;2022-09-21T11:20:14;17.20;99.90
3944;DHT22;1986;52.546;13.428;2022-09-21T11:22:50;17.60;99.90
3944;DHT22;1986;52.546;13.428;2022-09-21T11:25:25;17.90;99.90
3944;DHT22;1986;52.546;13.428;2022-09-21T11:27:59;18.00;99.90
3944;DHT22;1986;52.546;13.428;2022-09-21T11:30:36;17.70;99.90
3944;DHT22;1986;52.546;13.428;2022-09-21T11:33:17;17.40;99.90
3944;DHT22;1986;52.546;13.428;2022-09-21T11:35:55;16.90;99.90
3944;DHT22;1986;52.546;13.428;2022-09-21T11:38:38;16.70;99.90
3944;DHT22;1986;52.546;13.428;2022-09-21T11:41:18;16.50;99.90
3944;DHT22;1986;52.546;13.428;2022-09-21T11:44:05;16.30;99.90
3944;DHT22;1986;52.546;13.428;2022-09-21T11:46:39;16.30;99.90
3944;DHT22;1986;52.546;13.428;2022-09-21T11:49:31;16.40;99.90
3944;DHT22;1986;52.546;13.428;2022-09-21T11:52:19;16.30;99.90
3944;DHT22;1986;52.546;13.428;2022-09-21T11:57:46;16.00;99.90
3944;DHT22;1986;52.546;13.428;2022-09-21T12:00:16;16.00;99.90
3944;DHT22;1986;52.546;13.428;2022-09-21T12:03:26;16.20;99.90
3944;DHT22;1986;52.546;13.428;2022-09-21T12:06:05;16.30;99.90
3944;DHT22;1986;52.546;13.428;2022-09-21T12:08:53;16.30;99.90
3944;DHT22;1986;52.546;13.428;2022-09-21T12:11:31;16.10;99.90
3944;DHT22;1986;52.546;13.428;2022-09-21T12:14:06;15.90;99.90
3944;DHT22;1986;52.546;13.428;2022-09-21T12:16:42;15.90;99.90
3944;DHT22;1986;52.546;13.428;2022-09-21T12:19:20;15.90;99.90
3944;DHT22;1986;52.546;13.428;2022-09-21T12:21:57;16.00;99.90
3944;DHT22;1986;52.546;13.428;2022-09-21T12:24:30;16.10;99.90
3944;DHT22;1986;52.546;13.428;2022-09-21T12:27:03;16.10;99.90
3944;DHT22;1986;52.546;13.428;2022-09-21T12:29:35;16.20;99.90
3944;DHT22;1986;52.546;13.428;2022-09-21T12:32:21;16.40;99.90
3944;DHT22;1986;52.546;13.428;2022-09-21T12:34:55;16.60;99.90
3944;DHT22;1986;52.546;13.428;2022-09-21T12:37:25;16.70;99.90
3944;DHT22;1986;52.546;13.428;2022-09-21T12:40:02;16.80;99.90
3944;DHT22;1986;52.546;13.428;2022-09-21T12:42:37;16.90;99.90
3944;DHT22;1986;52.546;13.428;2022-09-21T12:45:13;17.00;99.90
3944;DHT22;1986;52.546;13.428;2022-09-21T12:47:53;16.70;99.90
3944;DHT22;1986;52.546;13.428;2022-09-21T12:50:26;16.40;99.90
3944;DHT22;1986;52.546;13.428;2022-09-21T12:52:58;16.50;99.90
3944;DHT22;1986;52.546;13.428;2022-09-21T12:55:39;16.30;99.90
3944;DHT22;1986;52.546;13.428;2022-09-21T12:58:26;16.00;99.90
3944;DHT22;1986;52.546;13.428;2022-09-21T13:01:03;15.90;99.90
3944;DHT22;1986;52.546;13.428;2022-09-21T13:03:40;15.80;99.90
3944;DHT22;1986;52.546;13.428;2022-09-21T13:06:37;15.80;99.90
3944;DHT22;1986;52.546;13.428;2022-09-21T13:09:11;15.90;99.90
3944;DHT22;1986;52.546;13.428;2022-09-21T13:11:51;16.10;99.90
3944;DHT22;1986;52.546;13.428;2022-09-21T13:14:19;16.30;99.90
3944;DHT22;1986;52.546;13.428;2022-09-21T13:16:54;16.30;99.90
3944;DHT22;1986;52.546;13.428;2022-09-21T13:19:28;16.30;99.90
3944;DHT22;1986;52.546;13.428;2022-09-21T13:22:19;16.30;99.90
3944;DHT22;1986;52.546;13.428;2022-09-21T13:24:57;16.40;99.90
3944;DHT22;1986;52.546;13.428;2022-09-21T13:27:56;16.50;99.90
3944;DHT22;1986;52.546;13.428;2022-09-21T13:30:31;16.60;99.90
3944;DHT22;1986;52.546;13.428;2022-09-21T13:33:00;16.50;99.90
3944;DHT22;1986;52.546;13.428;2022-09-21T13:35:58;16.50;99.90
3944;DHT22;1986;52.546;13.428;2022-09-21T13:38:32;16.50;99.90
3944;DHT22;1986;52.546;13.428;2022-09-21T13:41:03;16.40;99.90
3944;DHT22;1986;52.546;13.428;2022-09-21T13:44:00;16.30;99.90
3944;DHT22;1986;52.546;13.428;2022-09-21T13:47:00;16.20;99.90
3944;DHT22;1986;52.546;13.428;2022-09-21T13:49:36;16.30;99.90
3944;DHT22;1986;52.546;13.428;2022-09-21T13:52:16;16.30;99.90
3944;DHT22;1986;52.546;13.428;2022-09-21T13:54:51;16.30;99.90
3944;DHT22;1986;52.546;13.428;2022-09-21T13:57:32;16.30;99.90
3944;DHT22;1986;52.546;13.428;2022-09-21T14:00:31;16.40;99.90
3944;DHT22;1986;52.546;13.428;2022-09-21T14:03:01;16.50;99.90
3944;DHT22;1986;52.546;13.428;2022-09-21T14:05:33;16.60;99.90
3944;DHT22;1986;52.546;13.428;2022-09-21T14:08:03;16.70;99.90
3944;DHT22;1986;52.546;13.428;2022-09-21T14:10:33;16.70;99.90
3944;DHT22;1986;52.546;13.428;2022-09-21T14:13:02;16.70;99.90
3944;DHT22;1986;52.546;13.428;2022-09-21T14:15:39;16.80;99.90
3944;DHT22;1986;52.546;13.428;2022-09-21T14:18:34;16.80;99.90
3944;DHT22;1986;52.546;13.428;2022-09-21T14:21:15;16.80;99.90
3944;DHT22;1986;52.546;13.428;2022-09-21T14:27:03;16.90;99.90
3944;DHT22;1986;52.546;13.428;2022-09-21T14:29:40;17.00;99.90
3944;DHT22;1986;52.546;13.428;2022-09-21T14:32:15;17.00;99.90
3944;DHT22;1986;52.546;13.428;2022-09-21T14:34:45;17.00;99.90
3944;DHT22;1986;52.546;13.428;2022-09-21T14:37:30;17.00;99.90
3944;DHT22;1986;52.546;13.428;2022-09-21T14:40:02;17.00;99.90
3944;DHT22;1986;52.546;13.428;2022-09-21T14:42:31;16.90;99.90
3944;DHT22;1986;52.546;13.428;2022-09-21T14:44:59;16.70;99.90
3944;DHT22;1986;52.546;13.428;2022-09-21T14:47:47;16.60;99.90
3944;DHT22;1986;52.546;13.428;2022-09-21T14:50:29;16.60;99.90
3944;DHT22;1986;52.546;13.428;2022-09-21T14:53:20;16.50;99.90
3944;DHT22;1986;52.546;13.428;2022-09-21T14:56:20;16.50;99.90
3944;DHT22;1986;52.546;13.428;2022-09-21T14:59:00;16.50;99.90
3944;DHT22;1986;52.546;13.428;2022-09-21T15:01:36;16.50;99.90
3944;DHT22;1986;52.546;13.428;2022-09-21T15:04:48;16.40;99.90
3944;DHT22;1986;52.546;13.428;2022-09-21T15:07:30;16.40;99.90
3944;DHT22;1986;52.546;13.428;2022-09-21T15:10:22;16.40;99.90
3944;DHT22;1986;52.546;13.428;2022-09-21T15:13:39;16.40;99.90
3944;DHT22;1986;52.546;13.428;2022-09-21T15:16:16;16.30;99.90
3944;DHT22;1986;52.546;13.428;2022-09-21T15:18:47;16.20;99.90
3944;DHT22;1986;52.546;13.428;2022-09-21T15:21:25;16.20;99.90
3944;DHT22;1986;52.546;13.428;2022-09-21T15:23:52;16.20;99.90
3944;DHT22;1986;52.546;13.428;2022-09-21T15:26:21;16.20;99.90
3944;DHT22;1986;52.546;13.428;2022-09-21T15:28:55;16.20;99.90
3944;DHT22;1986;52.546;13.428;2022-09-21T15:31:23;16.20;99.90
3944;DHT22;1986;52.546;13.428;2022-09-21T15:33:51;16.20;99.90
3944;DHT22;1986;52.546;13.428;2022-09-21T15:36:22;16.20;99.90
3944;DHT22;1986;52.546;13.428;2022-09-21T15:38:50;16.20;99.90
3944;DHT22;1986;52.546;13.428;2022-09-21T15:41:37;16.20;99.90
3944;DHT22;1986;52.546;13.428;2022-09-21T15:44:11;16.20;99.90
3944;DHT22;1986;52.546;13.428;2022-09-21T15:46:39;16.10;99.90
3944;DHT22;1986;52.546;13.428;2022-09-21T15:49:10;16.20;99.90
3944;DHT22;1986;52.546;13.428;2022-09-21T15:51:41;16.10;99.90
3944;DHT22;1986;52.546;13.428;2022-09-21T15:54:39;16.10;99.90
3944;DHT22;1986;52.546;13.428;2022-09-21T15:57:23;16.00;99.90
3944;DHT22;1986;52.546;13.428;2022-09-21T15:59:53;16.00;99.90
3944;DHT22;1986;52.546;13.428;2022-09-21T16:02:24;16.00;99.90
3944;DHT22;1986;52.546;13.428;2022-09-21T16:04:52;16.00;99.90
3944;DHT22;1986;52.546;13.428;2022-09-21T16:07:30;15.90;99.90
3944;DHT22;1986;52.546;13.428;2022-09-21T16:10:36;16.00;99.90
3944;DHT22;1986;52.546;13.428;2022-09-21T16:13:08;16.00;99.90
3944;DHT22;1986;52.546;13.428;2022-09-21T16:15:59;15.90;99.90
3944;DHT22;1986;52.546;13.428;2022-09-21T16:18:41;15.90;99.90
3944;DHT22;1986;52.546;13.428;2022-09-21T16:21:52;15.90;99.90
3944;DHT22;1986;52.546;13.428;2022-09-21T16:24:44;15.80;99.90
3944;DHT22;1986;52.546;13.428;2022-09-21T16:27:26;15.70;99.90
3944;DHT22;1986;52.546;13.428;2022-09-21T16:29:57;15.70;99.90
3944;DHT22;1986;52.546;13.428;2022-09-21T16:32:44;15.70;99.90
3944;DHT22;1986;52.546;13.428;2022-09-21T16:35:22;15.70;99.90
3944;DHT22;1986;52.546;13.428;2022-09-21T16:37:57;15.60;99.90
3944;DHT22;1986;52.546;13.428;2022-09-21T16:40:33;15.60;99.90
3944;DHT22;1986;52.546;13.428;2022-09-21T16:42:59;15.60;99.90
3944;DHT22;1986;52.546;13.428;2022-09-21T16:45:31;15.50;99.90
3944;DHT22;1986;52.546;13.428;2022-09-21T16:48:08;15.50;99.90
3944;DHT22;1986;52.546;13.428;2022-09-21T16:50:37;15.40;99.90